createdAt,value
2023-02-13T00:02:15.829Z,5.10
2023-02-13T00:04:43.498Z,4.77
2023-02-13T00:07:14.596Z,4.80
2023-02-13T00:09:41.962Z,4.40
2023-02-13T00:12:10.304Z,4.90
2023-02-13T00:14:38.585Z,5.30
2023-02-13T00:17:06.558Z,5.03
2023-02-13T00:19:34.255Z,5.77
2023-02-13T00:22:01.600Z,5.17
2023-02-13T00:24:29.005Z,5.03
2023-02-13T00:26:56.447Z,5.27
2023-02-13T00:29:23.857Z,4.73
2023-02-13T00:31:52.559Z,4.70
2023-02-13T00:34:19.998Z,5.37
2023-02-13T00:36:47.409Z,5.03
2023-02-13T00:39:14.793Z,5.17
2023-02-13T00:41:42.139Z,4.73
2023-02-13T00:44:10.224Z,4.30
2023-02-13T00:46:38.852Z,4.40
2023-02-13T00:49:06.780Z,4.47
2023-02-13T00:51:35.305Z,4.53
2023-02-13T00:54:02.735Z,5.23
2023-02-13T00:56:30.179Z,5.23
2023-02-13T00:58:57.571Z,4.63
2023-02-13T01:01:25.956Z,4.67
2023-02-13T01:03:53.415Z,4.90
2023-02-13T01:06:22.052Z,5.07
2023-02-13T01:08:49.493Z,4.70
2023-02-13T01:11:19.086Z,5.00
2023-02-13T01:13:46.993Z,4.67
2023-02-13T01:16:16.030Z,4.50
2023-02-13T01:18:43.497Z,5.20
2023-02-13T01:21:15.772Z,5.30
2023-02-13T01:23:43.137Z,4.83
2023-02-13T01:26:15.004Z,4.90
2023-02-13T01:28:42.483Z,4.87
2023-02-13T01:31:11.581Z,4.57
2023-02-13T01:33:39.016Z,4.20
2023-02-13T01:36:08.582Z,4.70
2023-02-13T01:38:37.800Z,4.30
2023-02-13T01:41:05.538Z,4.97
2023-02-13T01:43:53.978Z,4.23
2023-02-13T01:46:28.521Z,4.50
2023-02-13T01:48:58.488Z,4.27
2023-02-13T01:51:30.077Z,4.30
2023-02-13T01:54:01.236Z,4.50
2023-02-13T01:56:40.373Z,4.23
2023-02-13T01:59:14.515Z,4.30
2023-02-13T02:01:42.246Z,4.30
2023-02-13T02:04:15.365Z,4.53
2023-02-13T02:06:44.576Z,4.33
2023-02-13T02:09:15.816Z,4.13
2023-02-13T02:11:46.892Z,4.13
2023-02-13T02:14:15.335Z,4.57
2023-02-13T02:16:43.496Z,3.90
2023-02-13T02:19:37.231Z,4.20
2023-02-13T02:22:13.542Z,4.10
2023-02-13T02:24:48.608Z,4.37
2023-02-13T02:27:48.199Z,4.20
2023-02-13T02:30:28.116Z,3.53
2023-02-13T02:33:13.621Z,3.83
2023-02-13T02:35:45.483Z,3.80
2023-02-13T02:38:39.432Z,3.90
2023-02-13T02:41:06.894Z,3.97
2023-02-13T02:43:36.525Z,3.50
2023-02-13T02:46:14.549Z,3.80
2023-02-13T02:49:08.358Z,3.97
2023-02-13T02:51:41.973Z,3.93
2023-02-13T02:54:37.050Z,3.70
2023-02-13T02:57:12.671Z,4.03
2023-02-13T03:00:00.059Z,4.23
2023-02-13T03:02:46.096Z,3.90
2023-02-13T03:05:36.380Z,3.50
2023-02-13T03:08:04.138Z,3.40
2023-02-13T03:10:52.574Z,4.23
2023-02-13T03:13:40.225Z,3.67
2023-02-13T03:16:26.683Z,4.13
2023-02-13T03:19:15.908Z,3.77
2023-02-13T03:22:09.673Z,3.97
2023-02-13T03:25:03.400Z,3.80
2023-02-13T03:28:08.201Z,3.80
2023-02-13T03:30:40.209Z,3.60
2023-02-13T03:33:07.594Z,3.80
2023-02-13T03:35:56.185Z,4.17
2023-02-13T03:38:27.200Z,3.20
2023-02-13T03:41:19.550Z,3.93
2023-02-13T03:43:55.975Z,3.80
2023-02-13T03:46:25.356Z,3.80
2023-02-13T03:49:11.672Z,4.37
2023-02-13T03:51:42.029Z,3.97
2023-02-13T03:54:48.023Z,4.00
2023-02-13T03:57:37.342Z,3.57
2023-02-13T04:00:06.754Z,3.70
2023-02-13T04:02:43.364Z,3.73
2023-02-13T04:05:18.313Z,3.80
2023-02-13T04:07:45.751Z,3.73
2023-02-13T04:10:14.857Z,4.07
2023-02-13T04:12:54.185Z,3.73
2023-02-13T04:15:43.188Z,4.20
2023-02-13T04:18:39.723Z,4.03
2023-02-13T04:21:07.881Z,3.93
2023-02-13T04:23:36.882Z,3.57
2023-02-13T04:36:19.634Z,3.43
2023-02-13T04:38:47.028Z,3.47
2023-02-13T04:41:14.562Z,3.43
2023-02-13T04:43:42.111Z,3.53
2023-02-13T04:46:09.453Z,3.67
2023-02-13T04:48:38.801Z,3.53
2023-02-13T04:51:06.565Z,3.60
2023-02-13T04:53:33.880Z,3.63
2023-02-13T04:56:01.428Z,3.70
2023-02-13T04:58:28.964Z,3.87
2023-02-13T05:00:56.624Z,3.30
2023-02-13T05:03:24.212Z,3.67
2023-02-13T05:05:52.157Z,3.47
2023-02-13T05:08:19.752Z,3.33
2023-02-13T05:10:47.495Z,3.30
2023-02-13T05:13:16.676Z,3.33
2023-02-13T05:15:44.080Z,3.53
2023-02-13T05:18:11.957Z,3.63
2023-02-13T05:20:40.284Z,3.73
2023-02-13T05:23:25.250Z,3.17
2023-02-13T05:25:53.431Z,3.33
2023-02-13T05:28:39.400Z,3.07
2023-02-13T05:31:06.916Z,3.47
2023-02-13T05:33:34.319Z,3.40
2023-02-13T05:36:01.684Z,3.33
2023-02-13T05:38:29.041Z,3.50
2023-02-13T05:40:56.734Z,3.37
2023-02-13T05:43:24.282Z,3.50
2023-02-13T05:45:52.321Z,3.60
2023-02-13T05:48:19.674Z,3.67
2023-02-13T05:50:48.464Z,3.10
2023-02-13T05:53:15.912Z,3.30
2023-02-13T05:55:43.252Z,3.70
2023-02-13T05:58:11.987Z,3.83
2023-02-13T06:00:39.413Z,3.57
2023-02-13T06:03:06.746Z,4.00
2023-02-13T06:05:34.070Z,3.40
2023-02-13T06:08:01.545Z,3.37
2023-02-13T06:10:29.006Z,3.60
2023-02-13T06:12:56.400Z,3.70
2023-02-13T06:15:24.045Z,3.87
2023-02-13T06:17:51.413Z,3.37
2023-02-13T06:20:18.890Z,3.53
2023-02-13T06:22:48.763Z,3.50
2023-02-13T06:25:16.243Z,3.77
2023-02-13T06:27:43.614Z,3.97
2023-02-13T06:30:11.194Z,4.10
2023-02-13T06:32:38.640Z,3.60
2023-02-13T06:35:06.195Z,3.40
2023-02-13T06:37:33.619Z,3.53
2023-02-13T06:40:01.065Z,3.93
2023-02-13T06:42:28.411Z,3.33
2023-02-13T06:44:55.889Z,4.03
2023-02-13T06:47:23.261Z,3.60
2023-02-13T06:49:50.586Z,3.93
2023-02-13T06:52:18.099Z,3.43
2023-02-13T06:54:48.021Z,3.87
2023-02-13T06:57:16.047Z,3.83
2023-02-13T06:59:43.682Z,4.03
2023-02-13T07:02:12.134Z,4.00
2023-02-13T07:04:39.550Z,3.73
2023-02-13T07:07:06.877Z,4.20
2023-02-13T07:09:34.319Z,4.17
2023-02-13T07:12:05.737Z,3.93
2023-02-13T07:14:33.248Z,4.40
2023-02-13T07:17:00.600Z,3.83
2023-02-13T07:19:28.093Z,3.93
2023-02-13T07:21:55.533Z,4.33
2023-02-13T07:24:22.886Z,4.30
2023-02-13T07:26:50.284Z,4.20
2023-02-13T07:29:17.750Z,3.90
2023-02-13T07:31:45.342Z,4.07
2023-02-13T07:34:12.934Z,4.67
2023-02-13T07:36:40.390Z,4.10
2023-02-13T07:39:07.743Z,4.27
2023-02-13T07:41:35.194Z,4.37
2023-02-13T07:44:02.637Z,4.13
2023-02-13T07:46:30.033Z,4.47
2023-02-13T07:48:57.589Z,4.03
2023-02-13T07:51:25.478Z,4.37
2023-02-13T07:53:54.051Z,4.00
2023-02-13T07:56:22.105Z,4.00
2023-02-13T07:58:49.653Z,3.80
2023-02-13T08:01:18.000Z,3.90
2023-02-13T08:03:48.527Z,3.77
2023-02-13T08:06:15.974Z,3.90
2023-02-13T08:08:43.344Z,3.50
2023-02-13T08:11:39.355Z,4.00
2023-02-13T08:14:06.806Z,3.77
2023-02-13T08:16:34.215Z,3.80
2023-02-13T08:19:01.654Z,3.90
2023-02-13T08:21:29.173Z,4.07
2023-02-13T08:23:56.584Z,3.97
2023-02-13T08:26:24.016Z,4.20
2023-02-13T08:28:51.401Z,3.90
2023-02-13T08:31:19.072Z,4.10
2023-02-13T08:33:46.519Z,3.87
2023-02-13T08:36:14.092Z,4.47
2023-02-13T08:38:41.550Z,4.37
2023-02-13T08:41:09.127Z,4.43
2023-02-13T08:43:36.529Z,4.57
2023-02-13T08:46:04.094Z,4.43
2023-02-13T08:48:31.573Z,4.17
2023-02-13T08:50:58.971Z,4.53
2023-02-13T08:53:26.387Z,4.33
2023-02-13T08:55:54.676Z,4.50
2023-02-13T08:58:22.454Z,4.10
2023-02-13T09:00:49.908Z,4.30
2023-02-13T09:03:17.704Z,4.63
2023-02-13T09:05:45.334Z,4.33
2023-02-13T09:08:13.848Z,3.97
2023-02-13T09:10:43.699Z,4.50
2023-02-13T09:13:11.376Z,4.40
2023-02-13T09:15:40.377Z,4.27
2023-02-13T09:18:08.447Z,4.40
2023-02-13T09:20:36.229Z,4.83
2023-02-13T09:23:03.901Z,4.57
2023-02-13T09:25:31.363Z,4.50
2023-02-13T09:28:00.346Z,4.43
2023-02-13T09:30:27.898Z,4.20
2023-02-13T09:32:56.037Z,4.53
2023-02-13T09:35:24.208Z,4.40
2023-02-13T09:37:51.619Z,4.23
2023-02-13T09:40:20.845Z,4.27
2023-02-13T09:42:48.756Z,4.70
2023-02-13T09:45:17.822Z,4.47
2023-02-13T09:47:45.918Z,13.33
2023-02-13T09:50:15.640Z,8.80
2023-02-13T09:52:44.699Z,6.67
2023-02-13T09:55:16.358Z,5.10
2023-02-13T09:57:46.925Z,5.03
2023-02-13T10:00:14.594Z,5.13
2023-02-13T10:02:41.992Z,4.77
2023-02-13T10:05:12.403Z,5.03
2023-02-13T10:07:49.321Z,4.97
2023-02-13T10:10:41.307Z,5.10
2023-02-13T10:13:11.777Z,5.10
2023-02-13T10:15:44.256Z,4.37
2023-02-13T10:18:14.616Z,5.50
2023-02-13T10:20:57.118Z,5.73
2023-02-13T10:23:29.453Z,5.77
2023-02-13T10:26:01.591Z,5.60
2023-02-13T10:28:34.825Z,6.20
2023-02-13T10:31:12.284Z,5.97
2023-02-13T10:33:44.301Z,6.10
2023-02-13T10:36:11.696Z,6.10
2023-02-13T10:38:42.190Z,5.90
2023-02-13T10:41:23.996Z,5.90
2023-02-13T10:43:51.347Z,6.33
2023-02-13T10:46:29.520Z,6.93
2023-02-13T10:49:27.317Z,7.87
2023-02-13T10:52:03.374Z,7.50
2023-02-13T10:54:47.993Z,7.60
2023-02-13T10:57:18.305Z,9.17
2023-02-13T10:59:59.237Z,8.40
2023-02-13T11:02:28.164Z,9.80
2023-02-13T11:05:00.272Z,8.30
2023-02-13T11:07:28.602Z,8.33
2023-02-13T11:09:59.681Z,7.33
2023-02-13T11:12:32.125Z,7.67
2023-02-13T11:14:59.620Z,7.43
2023-02-13T11:17:29.577Z,10.40
2023-02-13T11:19:58.601Z,7.70
2023-02-13T11:22:29.001Z,7.97
2023-02-13T11:24:58.792Z,7.67
2023-02-13T11:27:33.903Z,7.63
2023-02-13T11:30:03.023Z,8.07
2023-02-13T11:32:31.324Z,8.47
2023-02-13T11:35:00.793Z,8.30
2023-02-13T11:37:29.474Z,9.10
2023-02-13T11:39:58.904Z,7.73
2023-02-13T11:42:35.296Z,7.93
2023-02-13T11:45:04.933Z,7.23
2023-02-13T11:47:32.415Z,7.20
2023-02-13T11:49:59.816Z,4.90
2023-02-13T11:52:29.235Z,4.10
2023-02-13T11:54:58.166Z,3.83
2023-02-13T11:57:33.452Z,3.80
2023-02-13T12:00:02.237Z,3.83
2023-02-13T12:02:48.262Z,3.20
2023-02-13T12:05:20.834Z,3.53
2023-02-13T12:07:48.471Z,3.00
2023-02-13T12:10:17.542Z,3.40
2023-02-13T12:12:58.754Z,3.13
2023-02-13T12:15:28.161Z,3.40
2023-02-13T12:18:14.613Z,3.30
2023-02-13T12:20:51.066Z,3.10
2023-02-13T12:23:18.552Z,1.67
2023-02-13T12:26:01.732Z,3.80
2023-02-13T12:31:09.318Z,3.30
2023-02-13T12:33:42.846Z,3.83
2023-02-13T12:36:10.190Z,3.60
2023-02-13T12:38:40.523Z,3.30
2023-02-13T12:41:14.707Z,3.60
2023-02-13T12:43:48.180Z,3.53
2023-02-13T12:46:18.515Z,3.60
2023-02-13T12:48:56.856Z,3.20
2023-02-13T12:51:44.483Z,3.50
2023-02-13T12:54:29.800Z,3.77
2023-02-13T12:57:20.484Z,3.43
2023-02-13T12:59:50.832Z,3.83
2023-02-13T13:02:21.715Z,3.53
2023-02-13T13:05:09.960Z,3.60
2023-02-13T13:07:43.543Z,2.97
2023-02-13T13:10:26.264Z,3.13
2023-02-13T13:12:56.715Z,3.47
2023-02-13T13:15:42.919Z,3.20
2023-02-13T13:18:16.227Z,3.27
2023-02-13T13:20:51.589Z,3.17
2023-02-13T13:23:21.481Z,3.70
2023-02-13T13:25:53.039Z,3.40
2023-02-13T13:28:23.888Z,3.40
2023-02-13T13:30:51.660Z,3.50
2023-02-13T13:33:23.164Z,4.07
2023-02-13T13:36:00.324Z,3.70
2023-02-13T13:38:31.219Z,3.73
2023-02-13T13:41:07.968Z,3.63
2023-02-13T13:43:38.422Z,3.80
2023-02-13T13:46:09.358Z,3.83
2023-02-13T13:48:52.250Z,3.90
2023-02-13T13:51:19.998Z,3.90
2023-02-13T13:54:05.705Z,3.80
2023-02-13T13:56:51.827Z,4.07
2023-02-13T13:59:20.631Z,3.80
2023-02-13T14:01:48.176Z,3.63
2023-02-13T14:04:34.523Z,4.20
2023-02-13T14:07:01.874Z,3.87
2023-02-13T14:09:29.469Z,3.83
2023-02-13T14:11:58.557Z,4.10
2023-02-13T14:14:29.014Z,3.83
2023-02-13T14:16:57.926Z,4.00
2023-02-13T14:19:25.523Z,3.80
2023-02-13T14:21:53.252Z,3.50
2023-02-13T14:24:21.269Z,3.83
2023-02-13T14:27:04.716Z,3.83
2023-02-13T14:29:33.624Z,3.33
2023-02-13T14:32:03.086Z,3.60
2023-02-13T14:34:32.040Z,3.80
2023-02-13T14:37:30.212Z,3.53
2023-02-13T14:40:17.591Z,3.87
2023-02-13T14:42:51.328Z,4.10
2023-02-13T14:45:20.904Z,3.63
2023-02-13T14:47:53.514Z,4.30
2023-02-13T14:50:24.809Z,3.80
2023-02-13T14:52:52.349Z,3.77
2023-02-13T14:55:31.760Z,4.03
2023-02-13T14:58:09.799Z,4.47
2023-02-13T15:00:40.291Z,3.93
2023-02-13T15:03:26.573Z,3.80
2023-02-13T15:05:55.144Z,3.80
2023-02-13T15:08:25.462Z,3.67
2023-02-13T15:10:54.351Z,3.70
2023-02-13T15:13:23.390Z,4.50
2023-02-13T15:15:53.999Z,3.90
2023-02-13T15:18:23.179Z,3.73
2023-02-13T15:20:50.642Z,3.47
2023-02-13T15:23:26.644Z,3.90
2023-02-13T15:26:01.441Z,3.50
2023-02-13T15:28:29.315Z,3.60
2023-02-13T15:31:01.518Z,3.70
2023-02-13T15:33:33.379Z,3.47
2023-02-13T15:36:05.252Z,3.10
2023-02-13T15:38:34.036Z,3.70
2023-02-13T15:41:04.636Z,3.53
2023-02-13T15:43:36.406Z,3.47
2023-02-13T15:46:06.429Z,3.40
2023-02-13T15:48:35.317Z,3.47
2023-02-13T15:51:03.670Z,3.33
2023-02-13T15:53:31.243Z,3.20
2023-02-13T15:56:00.174Z,3.17
2023-02-13T15:58:30.609Z,2.87
2023-02-13T16:01:00.479Z,3.20
2023-02-13T16:03:28.341Z,2.93
2023-02-13T16:05:55.815Z,3.73
2023-02-13T16:08:35.406Z,3.00
2023-02-13T16:11:14.999Z,3.27
2023-02-13T16:13:51.014Z,3.10
2023-02-13T16:16:18.625Z,3.00
2023-02-13T16:18:46.269Z,2.80
2023-02-13T16:21:13.798Z,2.53
2023-02-13T16:23:41.370Z,2.73
2023-02-13T16:26:13.083Z,2.60
2023-02-13T16:28:40.664Z,2.70
2023-02-13T16:31:08.468Z,2.40
2023-02-13T16:33:42.103Z,2.33
2023-02-13T16:36:09.608Z,2.67
2023-02-13T16:38:38.940Z,2.83
2023-02-13T16:41:26.587Z,2.53
2023-02-13T16:43:58.099Z,2.43
2023-02-13T16:46:25.555Z,2.80
2023-02-13T16:48:59.378Z,2.30
2023-02-13T16:51:45.520Z,2.63
2023-02-13T16:54:12.945Z,2.50
2023-02-13T16:56:42.135Z,2.60
2023-02-13T16:59:12.522Z,2.70
2023-02-13T17:01:43.178Z,2.23
2023-02-13T17:04:20.338Z,2.50
2023-02-13T17:06:47.824Z,2.50
2023-02-13T17:09:15.509Z,2.40
2023-02-13T17:11:42.993Z,2.43
2023-02-13T17:14:10.329Z,2.70
2023-02-13T17:16:37.916Z,2.53
2023-02-13T17:19:05.334Z,2.67
2023-02-13T17:21:32.836Z,2.53
2023-02-13T17:24:00.520Z,2.50
2023-02-13T17:26:27.892Z,2.40
2023-02-13T17:28:55.421Z,2.40
2023-02-13T17:31:22.988Z,2.17
2023-02-13T17:33:50.440Z,2.40
2023-02-13T17:36:18.111Z,2.30
2023-02-13T17:38:45.729Z,2.40
2023-02-13T17:41:15.223Z,2.43
2023-02-13T17:43:42.760Z,2.30
2023-02-13T17:46:10.373Z,2.30
2023-02-13T17:48:37.900Z,2.33
2023-02-13T17:51:05.361Z,2.23
2023-02-13T17:53:32.936Z,2.40
2023-02-13T17:56:00.602Z,2.40
2023-02-13T17:58:28.168Z,2.40
2023-02-13T18:00:55.781Z,2.60
2023-02-13T18:03:23.564Z,2.57
2023-02-13T18:05:51.612Z,2.60
2023-02-13T18:08:20.258Z,2.60
2023-02-13T18:10:48.208Z,2.20
2023-02-13T18:13:15.592Z,2.70
2023-02-13T18:15:44.146Z,2.87
2023-02-13T18:18:12.168Z,2.80
2023-02-13T18:20:39.879Z,2.60
2023-02-13T18:23:07.438Z,3.00
2023-02-13T18:25:35.254Z,3.20
2023-02-13T18:28:02.896Z,2.90
2023-02-13T18:30:30.645Z,3.10
2023-02-13T18:32:59.757Z,2.60
2023-02-13T18:35:27.580Z,2.80
2023-02-13T18:37:55.005Z,3.10
2023-02-13T18:40:22.776Z,3.40
2023-02-13T18:42:51.285Z,3.00
2023-02-13T18:45:18.994Z,2.80
2023-02-13T18:47:46.533Z,3.00
2023-02-13T18:50:14.047Z,3.07
2023-02-13T18:52:41.568Z,2.87
2023-02-13T18:55:09.466Z,2.93
2023-02-13T18:57:37.113Z,2.87
2023-02-13T19:00:05.905Z,3.00
2023-02-13T19:02:33.685Z,3.10
2023-02-13T19:05:01.513Z,3.27
2023-02-13T19:07:29.477Z,3.30
2023-02-13T19:09:57.086Z,3.17
2023-02-13T19:12:24.905Z,3.30
2023-02-13T19:14:52.403Z,3.60
2023-02-13T19:17:19.774Z,3.20
2023-02-13T19:19:48.892Z,3.57
2023-02-13T19:22:16.371Z,3.20
2023-02-13T19:24:44.251Z,3.33
2023-02-13T19:27:12.721Z,3.00
2023-02-13T19:29:40.227Z,3.00
2023-02-13T19:32:08.066Z,3.20
2023-02-13T19:34:35.615Z,3.33
2023-02-13T19:37:03.208Z,3.50
2023-02-13T19:39:30.769Z,3.23
2023-02-13T19:41:58.810Z,3.10
2023-02-13T19:44:26.407Z,3.33
2023-02-13T19:46:53.909Z,3.33
2023-02-13T19:49:22.471Z,3.13
2023-02-13T19:51:50.739Z,3.70
2023-02-13T19:54:18.182Z,3.70
2023-02-13T19:56:45.631Z,3.97
2023-02-13T19:59:13.633Z,3.50
2023-02-13T20:01:45.770Z,4.20
2023-02-13T20:04:13.246Z,3.70
2023-02-13T20:06:40.731Z,3.80
2023-02-13T20:09:10.409Z,4.10
2023-02-13T20:11:37.953Z,3.63
2023-02-13T20:14:05.644Z,4.27
2023-02-13T20:16:35.569Z,4.13
2023-02-13T20:19:09.046Z,4.27
2023-02-13T20:21:37.073Z,4.10
2023-02-13T20:24:05.244Z,4.07
2023-02-13T20:26:33.067Z,4.10
2023-02-13T20:29:00.717Z,3.67
2023-02-13T20:31:33.690Z,4.53
2023-02-13T20:34:01.221Z,4.23
2023-02-13T20:36:30.523Z,4.60
2023-02-13T20:38:59.660Z,4.23
2023-02-13T20:41:28.125Z,4.20
2023-02-13T20:43:58.737Z,4.00
2023-02-13T20:46:26.615Z,3.70
2023-02-13T20:48:54.026Z,4.23
2023-02-13T20:51:21.601Z,4.53
2023-02-13T20:53:49.294Z,4.33
2023-02-13T20:56:21.105Z,4.37
2023-02-13T20:58:49.695Z,4.57
2023-02-13T21:01:18.741Z,4.30
2023-02-13T21:03:48.272Z,4.47
2023-02-13T21:06:15.733Z,5.10
2023-02-13T21:08:43.601Z,4.93
2023-02-13T21:11:11.140Z,4.80
2023-02-13T21:13:40.241Z,4.33
2023-02-13T21:16:12.100Z,4.53
2023-02-13T21:18:40.326Z,4.70
2023-02-13T21:21:08.717Z,4.60
2023-02-13T21:23:36.314Z,5.17
2023-02-13T21:26:08.316Z,4.87
2023-02-13T21:28:37.503Z,4.60
2023-02-13T21:31:25.650Z,4.97
2023-02-13T21:33:53.265Z,4.80
2023-02-13T21:36:20.662Z,4.93
2023-02-13T21:38:48.067Z,5.17
2023-02-13T21:41:16.381Z,4.83
2023-02-13T21:43:46.801Z,5.00
2023-02-13T21:46:17.291Z,4.60
2023-02-13T21:48:45.320Z,5.07
2023-02-13T21:51:14.071Z,5.13
2023-02-13T21:53:41.530Z,5.33
2023-02-13T21:56:11.472Z,5.10
2023-02-13T21:58:39.895Z,4.70
2023-02-13T22:01:25.351Z,5.37
2023-02-13T22:03:54.381Z,5.17
2023-02-13T22:06:21.944Z,5.40
2023-02-13T22:08:49.499Z,5.23
2023-02-13T22:11:20.009Z,4.90
2023-02-13T22:13:47.474Z,4.97
2023-02-13T22:16:15.938Z,5.57
2023-02-13T22:18:44.405Z,4.67
2023-02-13T22:21:16.180Z,5.77
2023-02-13T22:23:44.555Z,5.07
2023-02-13T22:26:18.870Z,5.13
2023-02-13T22:28:46.661Z,5.20
2023-02-13T22:31:14.837Z,5.50
2023-02-13T22:33:44.058Z,5.33
2023-02-13T22:36:13.437Z,5.73
2023-02-13T22:38:42.377Z,5.50
2023-02-13T22:41:11.058Z,5.27
2023-02-13T22:43:38.838Z,5.17
2023-02-13T22:46:07.374Z,5.90
2023-02-13T22:48:38.328Z,5.27
2023-02-13T22:51:06.619Z,5.60
2023-02-13T22:53:34.135Z,4.63
2023-02-13T22:56:02.194Z,5.17
2023-02-13T22:58:29.670Z,5.73
2023-02-13T23:00:57.297Z,5.53
2023-02-13T23:03:25.070Z,5.13
2023-02-13T23:05:52.530Z,5.20
2023-02-13T23:08:20.349Z,5.30
2023-02-13T23:11:07.668Z,5.67
2023-02-13T23:13:35.168Z,5.37
2023-02-13T23:16:02.553Z,5.90
2023-02-13T23:18:30.037Z,5.67
2023-02-13T23:21:04.323Z,4.83
2023-02-13T23:23:31.768Z,5.20
2023-02-13T23:26:03.610Z,4.93
2023-02-13T23:28:30.988Z,5.63
2023-02-13T23:30:58.893Z,5.13
2023-02-13T23:33:26.590Z,4.87
2023-02-13T23:35:54.311Z,5.60
2023-02-13T23:38:21.948Z,5.80
2023-02-13T23:40:49.261Z,5.50
2023-02-13T23:43:16.781Z,5.23
2023-02-13T23:45:44.141Z,5.73
2023-02-13T23:48:12.880Z,4.90
2023-02-13T23:50:40.455Z,5.43
2023-02-13T23:53:07.834Z,5.30
2023-02-13T23:55:35.224Z,5.47
2023-02-13T23:58:02.696Z,5.20
